createdAt,value
2023-01-02T00:01:10.320Z,100635.03
2023-01-02T00:03:37.285Z,100629.56
2023-01-02T00:06:06.013Z,100633.63
2023-01-02T00:08:33.622Z,100631.44
2023-01-02T00:11:00.440Z,100624.69
2023-01-02T00:13:27.347Z,100627.06
2023-01-02T00:15:54.258Z,100635.91
2023-01-02T00:18:21.074Z,100645.50
2023-01-02T00:20:47.878Z,100644.03
2023-01-02T00:23:14.640Z,100640.38
2023-01-02T00:25:41.566Z,100644.28
2023-01-02T00:28:08.519Z,100627.94
2023-01-02T00:30:38.936Z,100629.78
2023-01-02T00:33:08.961Z,100624.53
2023-01-02T00:35:39.265Z,100627.84
2023-01-02T00:38:06.594Z,100623.44
2023-01-02T00:40:34.519Z,100617.78
2023-01-02T00:43:02.241Z,100610.38
2023-01-02T00:45:29.187Z,100614.94
2023-01-02T00:47:56.015Z,100617.53
2023-01-02T00:50:23.078Z,100616.69
2023-01-02T00:52:49.851Z,100616.53
2023-01-02T00:55:18.669Z,100606.94
2023-01-02T00:57:45.501Z,100604.97
2023-01-02T01:00:15.866Z,100603.00
2023-01-02T01:02:46.913Z,100597.97
2023-01-02T01:05:13.729Z,100591.22
2023-01-02T01:07:40.596Z,100598.34
2023-01-02T01:10:08.051Z,100588.25
2023-01-02T01:12:34.858Z,100595.53
2023-01-02T01:15:01.686Z,100585.78
2023-01-02T01:17:29.238Z,100590.97
2023-01-02T01:19:56.047Z,100585.31
2023-01-02T01:22:22.906Z,100578.66
2023-01-02T01:24:50.159Z,100582.09
2023-01-02T01:27:16.985Z,100587.53
2023-01-02T01:29:43.750Z,100582.00
2023-01-02T01:32:10.688Z,100581.38
2023-01-02T01:34:37.513Z,100599.09
2023-01-02T01:37:04.519Z,100588.00
2023-01-02T01:39:31.328Z,100584.81
2023-01-02T01:42:02.372Z,100603.00
2023-01-02T01:44:54.143Z,100589.25
2023-01-02T01:47:39.080Z,100597.25
2023-01-02T01:50:27.423Z,100593.56
2023-01-02T01:53:01.026Z,100589.13
2023-01-02T01:55:46.693Z,100589.25
2023-01-02T01:58:27.460Z,100600.19
2023-01-02T02:00:54.506Z,100598.47
2023-01-02T02:03:27.792Z,100601.31
2023-01-02T02:05:56.841Z,100604.25
2023-01-02T02:08:42.162Z,100602.53
2023-01-02T02:11:10.145Z,100590.19
2023-01-02T02:13:37.055Z,100600.53
2023-01-02T02:16:06.869Z,100601.59
2023-01-02T02:19:01.442Z,100609.84
2023-01-02T02:21:55.897Z,100617.22
2023-01-02T02:24:48.973Z,100608.38
2023-01-02T02:27:55.140Z,100601.88
2023-01-02T02:30:26.873Z,100603.69
2023-01-02T02:33:16.490Z,100605.53
2023-01-02T02:36:08.189Z,100608.38
2023-01-02T02:39:13.844Z,100606.66
2023-01-02T02:42:11.773Z,100596.81
2023-01-02T02:45:19.349Z,100608.13
2023-01-02T02:48:19.158Z,100605.31
2023-01-02T02:51:17.930Z,100601.72
2023-01-02T02:54:00.612Z,100598.78
2023-01-02T02:56:28.990Z,100600.53
2023-01-02T02:58:56.587Z,100600.25
2023-01-02T03:01:30.919Z,100602.00
2023-01-02T03:03:58.514Z,100596.38
2023-01-02T03:06:49.187Z,100603.50
2023-01-02T03:09:27.988Z,100587.03
2023-01-02T03:12:23.942Z,100583.31
2023-01-02T03:15:04.065Z,100585.28
2023-01-02T03:18:05.046Z,100585.28
2023-01-02T03:20:44.245Z,100593.41
2023-01-02T03:23:21.633Z,100589.00
2023-01-02T03:25:49.323Z,100597.13
2023-01-02T03:28:22.717Z,100599.81
2023-01-02T03:30:57.061Z,100589.97
2023-01-02T03:33:33.905Z,100600.06
2023-01-02T03:36:10.074Z,100593.69
2023-01-02T03:38:47.236Z,100590.72
2023-01-02T03:41:28.603Z,100596.84
2023-01-02T03:44:00.320Z,100593.91
2023-01-02T03:46:41.389Z,100587.66
2023-01-02T03:49:33.008Z,100595.38
2023-01-02T03:52:00.536Z,100607.72
2023-01-02T03:54:30.032Z,100607.94
2023-01-02T03:57:08.608Z,100609.66
2023-01-02T04:00:09.927Z,100617.53
2023-01-02T04:02:59.033Z,100619.28
2023-01-02T04:05:34.571Z,100610.16
2023-01-02T04:08:25.979Z,100627.41
2023-01-02T04:10:58.703Z,100612.88
2023-01-02T04:13:35.449Z,100612.63
2023-01-02T04:16:07.677Z,100618.78
2023-01-02T04:18:47.249Z,100612.63
2023-01-02T04:21:21.769Z,100622.00
2023-01-02T04:24:03.216Z,100624.44
2023-01-02T04:26:39.551Z,100621.47
2023-01-02T04:29:06.657Z,100621.72
2023-01-02T04:31:49.084Z,100637.28
2023-01-02T04:34:19.718Z,100634.69
2023-01-02T04:36:47.083Z,100636.66
2023-01-02T04:39:13.843Z,100636.66
2023-01-02T04:41:41.432Z,100640.38
2023-01-02T04:44:08.262Z,100623.38
2023-01-02T04:46:35.166Z,100655.09
2023-01-02T04:49:02.069Z,100655.22
2023-01-02T04:51:28.837Z,100649.81
2023-01-02T04:53:55.674Z,100647.09
2023-01-02T04:56:22.702Z,100647.97
2023-01-02T04:58:50.643Z,100653.28
2023-01-02T05:01:21.125Z,100647.97
2023-01-02T05:03:52.818Z,100647.97
2023-01-02T05:06:20.041Z,100657.06
2023-01-02T05:08:46.881Z,100656.09
2023-01-02T05:11:20.357Z,100670.59
2023-01-02T05:13:47.295Z,100660.50
2023-01-02T05:16:14.247Z,100665.91
2023-01-02T05:18:41.168Z,100665.69
2023-01-02T05:21:30.100Z,100664.47
2023-01-02T05:24:02.501Z,100676.03
2023-01-02T05:26:33.549Z,100676.56
2023-01-02T05:29:01.597Z,100678.06
2023-01-02T05:31:29.434Z,100676.84
2023-01-02T05:33:58.676Z,100680.03
2023-01-02T05:36:27.243Z,100686.22
2023-01-02T05:38:54.590Z,100684.38
2023-01-02T05:41:22.536Z,100676.13
2023-01-02T05:43:49.350Z,100679.56
2023-01-02T05:46:19.780Z,100683.03
2023-01-02T05:48:47.210Z,100690.16
2023-01-02T05:51:17.690Z,100702.94
2023-01-02T05:53:45.263Z,100702.09
2023-01-02T05:56:16.536Z,100699.25
2023-01-02T05:58:46.471Z,100699.03
2023-01-02T06:01:20.319Z,100695.56
2023-01-02T06:03:54.110Z,100711.69
2023-01-02T06:06:25.512Z,100708.13
2023-01-02T06:08:53.124Z,100711.81
2023-01-02T06:11:19.971Z,100704.69
2023-01-02T06:13:46.877Z,100704.91
2023-01-02T06:16:13.750Z,100711.66
2023-01-02T06:18:41.019Z,100713.25
2023-01-02T06:21:14.908Z,100707.19
2023-01-02T06:23:43.159Z,100715.47
2023-01-02T06:26:14.975Z,100706.78
2023-01-02T06:28:43.255Z,100725.22
2023-01-02T06:31:15.122Z,100734.56
2023-01-02T06:33:42.799Z,100727.91
2023-01-02T06:36:16.828Z,100739.16
2023-01-02T06:38:45.540Z,100793.72
2023-01-02T06:41:13.330Z,100806.97
2023-01-02T06:43:49.409Z,100821.09
2023-01-02T06:46:19.677Z,100816.19
2023-01-02T06:48:47.331Z,100823.94
2023-01-02T06:51:19.003Z,100825.78
2023-01-02T06:53:46.541Z,100835.88
2023-01-02T06:56:17.076Z,100844.06
2023-01-02T06:58:44.021Z,100848.31
2023-01-02T07:01:18.725Z,100860.56
2023-01-02T07:03:45.943Z,100862.03
2023-01-02T07:06:17.223Z,100872.53
2023-01-02T07:08:44.876Z,100879.19
2023-01-02T07:11:20.801Z,100885.00
2023-01-02T07:13:50.421Z,100887.88
2023-01-02T07:16:20.047Z,100896.13
2023-01-02T07:18:47.395Z,100903.47
2023-01-02T07:21:18.001Z,100917.91
2023-01-02T07:23:45.050Z,100926.94
2023-01-02T07:26:13.442Z,100928.69
2023-01-02T07:28:40.731Z,100938.50
2023-01-02T07:31:13.576Z,100941.19
2023-01-02T07:33:41.452Z,100950.25
2023-01-02T07:36:13.329Z,100956.59
2023-01-02T07:38:40.141Z,100966.50
2023-01-02T07:41:19.547Z,100968.31
2023-01-02T07:43:47.341Z,100979.09
2023-01-02T07:46:17.773Z,100982.75
2023-01-02T07:48:45.704Z,100981.03
2023-01-02T07:51:13.035Z,100993.53
2023-01-02T07:53:41.604Z,100993.53
2023-01-02T07:56:09.526Z,101003.47
2023-01-02T07:58:37.390Z,101010.78
2023-01-02T08:01:11.332Z,101013.56
2023-01-02T08:03:39.967Z,101021.91
2023-01-02T08:06:14.669Z,101026.44
2023-01-02T08:08:41.994Z,101030.09
2023-01-02T08:11:12.474Z,101025.66
2023-01-02T08:13:39.984Z,101040.84
2023-01-02T08:16:13.385Z,101060.50
2023-01-02T08:18:40.597Z,101059.63
2023-01-02T08:21:10.537Z,101065.88
2023-01-02T08:23:37.829Z,101075.72
2023-01-02T08:26:08.151Z,101082.03
2023-01-02T08:28:36.599Z,101085.72
2023-01-02T08:31:13.267Z,101083.97
2023-01-02T08:33:40.543Z,101095.72
2023-01-02T08:36:08.595Z,101089.56
2023-01-02T08:38:35.595Z,101094.94
2023-01-02T08:41:02.729Z,101098.59
2023-01-02T08:43:29.471Z,101111.28
2023-01-02T08:45:56.315Z,101115.03
2023-01-02T08:48:23.218Z,101114.16
2023-01-02T08:50:51.262Z,101116.84
2023-01-02T08:53:18.905Z,101120.50
2023-01-02T08:55:45.698Z,101134.94
2023-01-02T08:58:12.570Z,101133.22
2023-01-02T09:00:39.497Z,101145.88
2023-01-02T09:03:07.090Z,101147.63
2023-01-02T09:05:34.347Z,101156.84
2023-01-02T09:08:02.176Z,101151.63
2023-01-02T09:10:28.925Z,101158.94
2023-01-02T09:12:55.985Z,101152.00
2023-01-02T09:15:22.825Z,101161.00
2023-01-02T09:17:49.649Z,101175.44
2023-01-02T09:20:16.590Z,101170.84
2023-01-02T09:22:44.604Z,101170.66
2023-01-02T09:25:12.353Z,101186.72
2023-01-02T09:27:39.175Z,101191.25
2023-01-02T09:30:06.806Z,101188.56
2023-01-02T09:32:33.616Z,101207.50
2023-01-02T09:35:00.355Z,101212.72
2023-01-02T09:37:28.532Z,101221.50
2023-01-02T09:39:55.352Z,101216.97
2023-01-02T09:42:22.883Z,101221.31
2023-01-02T09:44:59.516Z,101225.75
2023-01-02T09:47:29.851Z,101230.19
2023-01-02T09:50:00.866Z,101239.91
2023-01-02T09:52:44.207Z,101240.59
2023-01-02T09:55:56.022Z,101243.91
2023-01-02T09:58:50.629Z,101248.00
2023-01-02T10:01:59.134Z,101252.25
2023-01-02T10:05:10.334Z,101237.81
2023-01-02T10:08:10.937Z,101238.63
2023-01-02T10:11:11.238Z,101236.09
2023-01-02T10:14:18.171Z,101250.50
2023-01-02T10:16:47.648Z,101252.41
2023-01-02T10:19:27.923Z,101248.00
2023-01-02T10:22:00.026Z,101253.47
2023-01-02T10:24:43.857Z,101261.72
2023-01-02T10:27:21.525Z,101262.59
2023-01-02T10:30:07.683Z,101261.66
2023-01-02T10:32:36.093Z,101255.41
2023-01-02T10:35:05.849Z,101250.88
2023-01-02T10:37:34.388Z,101248.16
2023-01-02T10:40:01.885Z,101258.00
2023-01-02T10:42:33.252Z,101263.41
2023-01-02T10:45:01.074Z,101269.47
2023-01-02T10:47:38.532Z,101269.38
2023-01-02T10:50:23.567Z,101277.38
2023-01-02T10:52:53.719Z,101286.22
2023-01-02T10:55:43.614Z,101281.91
2023-01-02T10:58:26.135Z,101280.06
2023-01-02T11:01:13.564Z,101275.53
2023-01-02T11:03:40.709Z,101280.84
2023-01-02T11:06:29.309Z,101275.38
2023-01-02T11:09:04.468Z,101291.53
2023-01-02T11:11:33.181Z,101285.22
2023-01-02T11:14:08.703Z,101300.31
2023-01-02T11:16:40.508Z,101300.25
2023-01-02T11:19:24.041Z,101306.34
2023-01-02T11:21:54.535Z,101305.97
2023-01-02T11:24:25.858Z,101316.50
2023-01-02T11:26:54.672Z,101311.13
2023-01-02T11:29:34.502Z,101318.50
2023-01-02T11:32:03.992Z,101310.34
2023-01-02T11:34:40.624Z,101313.13
2023-01-02T11:37:13.509Z,101319.38
2023-01-02T11:39:41.457Z,101322.91
2023-01-02T11:42:27.125Z,101327.28
2023-01-02T11:45:04.753Z,101313.81
2023-01-02T11:47:48.636Z,101320.91
2023-01-02T11:50:35.171Z,101324.41
2023-01-02T11:53:15.113Z,101321.63
2023-01-02T11:55:50.209Z,101315.13
2023-01-02T11:59:00.090Z,101318.38
2023-01-02T12:01:49.992Z,101326.31
2023-01-02T12:04:17.142Z,101336.16
2023-01-02T12:07:03.948Z,101334.31
2023-01-02T12:09:46.329Z,101346.06
2023-01-02T12:12:26.642Z,101353.38
2023-01-02T12:15:18.192Z,101354.16
2023-01-02T12:17:58.706Z,101348.75
2023-01-02T12:20:41.264Z,101346.66
2023-01-02T12:23:48.764Z,101344.75
2023-01-02T12:26:32.446Z,101343.72
2023-01-02T12:29:46.131Z,101343.72
2023-01-02T12:32:45.313Z,101340.41
2023-01-02T12:35:52.142Z,101336.94
2023-01-02T12:38:42.592Z,101343.19
2023-01-02T12:41:32.179Z,101339.56
2023-01-02T12:44:16.584Z,101341.09
2023-01-02T12:47:23.377Z,101348.22
2023-01-02T12:50:33.524Z,101353.63
2023-01-02T12:53:31.065Z,101362.84
2023-01-02T12:56:38.683Z,101364.69
2023-01-02T12:59:24.918Z,101364.75
2023-01-02T13:02:29.502Z,101377.47
2023-01-02T13:05:08.431Z,101373.09
2023-01-02T13:07:50.436Z,101388.34
2023-01-02T13:10:22.344Z,101389.97
2023-01-02T13:12:49.665Z,101381.88
2023-01-02T13:15:33.388Z,101388.09
2023-01-02T13:19:00.161Z,101388.09
2023-01-02T13:21:43.992Z,101377.09
2023-01-02T13:24:19.864Z,101371.56
2023-01-02T13:26:47.021Z,101393.66
2023-01-02T13:29:13.715Z,101391.66
2023-01-02T13:31:49.277Z,101388.97
2023-01-02T13:34:25.551Z,101377.03
2023-01-02T13:37:10.570Z,101376.06
2023-01-02T13:39:40.011Z,101376.81
2023-01-02T13:42:55.123Z,101381.19
2023-01-02T13:45:34.738Z,101377.63
2023-01-02T13:48:36.657Z,101365.88
2023-01-02T13:51:16.894Z,101376.66
2023-01-02T13:53:46.890Z,101400.94
2023-01-02T13:56:24.225Z,101391.13
2023-01-02T13:59:41.846Z,101403.91
2023-01-02T14:02:20.988Z,101406.88
2023-01-02T14:04:48.220Z,101403.38
2023-01-02T14:07:27.530Z,101414.34
2023-01-02T14:10:09.517Z,101408.34
2023-01-02T14:13:08.422Z,101421.03
2023-01-02T14:16:08.298Z,101427.41
2023-01-02T14:18:35.144Z,101423.94
2023-01-02T14:21:02.632Z,101436.66
2023-01-02T14:23:40.270Z,101432.28
2023-01-02T14:26:28.624Z,101433.31
2023-01-02T14:28:56.972Z,101430.88
2023-01-02T14:31:34.421Z,101424.63
2023-01-02T14:34:01.572Z,101424.97
2023-01-02T14:36:46.274Z,101427.81
2023-01-02T14:39:26.768Z,101441.47
2023-01-02T14:42:12.261Z,101445.13
2023-01-02T14:44:48.036Z,101446.00
2023-01-02T14:47:23.547Z,101443.03
2023-01-02T14:50:01.622Z,101439.41
2023-01-02T14:52:39.207Z,101440.19
2023-01-02T14:55:22.612Z,101439.03
2023-01-02T14:57:53.083Z,101447.94
2023-01-02T15:00:35.004Z,101446.03
2023-01-02T15:03:28.994Z,101445.91
2023-01-02T15:06:21.347Z,101454.72
2023-01-02T15:08:54.347Z,101456.38
2023-01-02T15:11:44.009Z,101462.56
2023-01-02T15:14:23.600Z,101459.78
2023-01-02T15:16:59.998Z,101468.81
2023-01-02T15:19:32.423Z,101482.22
2023-01-02T15:22:08.384Z,101484.91
2023-01-02T15:24:35.592Z,101488.59
2023-01-02T15:27:25.290Z,101495.97
2023-01-02T15:30:00.880Z,101498.84
2023-01-02T15:32:33.587Z,101496.28
2023-01-02T15:35:26.511Z,101512.66
2023-01-02T15:37:54.461Z,101518.53
2023-01-02T15:40:34.073Z,101531.56
2023-01-02T15:43:24.573Z,101533.63
2023-01-02T15:45:53.134Z,101549.44
2023-01-02T15:48:24.227Z,101545.38
2023-01-02T15:50:55.285Z,101543.16
2023-01-02T15:53:34.546Z,101551.59
2023-01-02T15:56:01.456Z,101549.19
2023-01-02T15:58:31.897Z,101564.72
2023-01-02T16:01:21.168Z,101557.81
2023-01-02T16:04:04.255Z,101571.53
2023-01-02T16:06:35.434Z,101579.75
2023-01-02T16:09:06.795Z,101577.69
2023-01-02T16:11:49.670Z,101582.75
2023-01-02T16:14:26.726Z,101586.28
2023-01-02T16:17:21.226Z,101588.00
2023-01-02T16:19:58.935Z,101591.81
2023-01-02T16:22:49.706Z,101603.53
2023-01-02T16:25:20.658Z,101606.06
2023-01-02T16:28:36.323Z,101610.34
2023-01-02T16:31:18.735Z,101627.31
2023-01-02T16:33:46.799Z,101626.44
2023-01-02T16:36:19.825Z,101621.06
2023-01-02T16:38:58.846Z,101627.31
2023-01-02T16:41:34.408Z,101627.38
2023-01-02T16:44:03.056Z,101635.47
2023-01-02T16:46:31.056Z,101634.59
2023-01-02T16:49:05.010Z,101633.00
2023-01-02T16:51:32.732Z,101633.31
2023-01-02T16:53:59.712Z,101633.47
2023-01-02T16:56:26.517Z,101644.38
2023-01-02T16:58:53.425Z,101656.91
2023-01-02T17:01:22.733Z,101658.66
2023-01-02T17:03:49.608Z,101663.88
2023-01-02T17:06:19.071Z,101662.00
2023-01-02T17:08:46.028Z,101667.38
2023-01-02T17:11:24.097Z,101679.91
2023-01-02T17:13:52.777Z,101688.94
2023-01-02T17:16:20.342Z,101685.44
2023-01-02T17:18:47.288Z,101696.22
2023-01-02T17:21:14.597Z,101701.59
2023-01-02T17:23:41.743Z,101695.28
2023-01-02T17:26:08.565Z,101707.00
2023-01-02T17:28:35.445Z,101704.38
2023-01-02T17:31:02.238Z,101709.91
2023-01-02T17:33:29.050Z,101712.69
2023-01-02T17:35:56.664Z,101710.91
2023-01-02T17:38:23.487Z,101719.97
2023-01-02T17:40:58.143Z,101714.56
2023-01-02T17:43:26.310Z,101725.50
2023-01-02T17:45:53.665Z,101716.59
2023-01-02T17:48:24.677Z,101722.00
2023-01-02T17:50:53.409Z,101741.66
2023-01-02T17:53:20.833Z,101735.41
2023-01-02T17:56:20.370Z,101745.28
2023-01-02T17:58:40.369Z,101745.56
2023-01-02T18:01:07.336Z,101756.47
2023-01-02T18:03:34.316Z,101755.81
2023-01-02T18:06:06.068Z,101763.88
2023-01-02T18:08:33.982Z,101764.06
2023-01-02T18:11:05.172Z,101767.66
2023-01-02T18:13:39.719Z,101776.72
2023-01-02T18:16:17.038Z,101781.13
2023-01-02T18:18:45.737Z,101787.47
2023-01-02T18:21:22.514Z,101787.59
2023-01-02T18:23:56.072Z,101788.53
2023-01-02T18:26:25.372Z,101792.16
2023-01-02T18:29:02.839Z,101802.13
2023-01-02T18:31:43.358Z,101813.03
2023-01-02T18:34:47.127Z,101821.22
2023-01-02T18:37:26.103Z,101827.56
2023-01-02T18:39:54.830Z,101832.09
2023-01-02T18:42:33.545Z,101829.47
2023-01-02T18:45:00.746Z,101844.72
2023-01-02T18:47:34.790Z,101843.03
2023-01-02T18:50:19.856Z,101847.63
2023-01-02T18:52:50.365Z,101847.75
2023-01-02T18:55:26.276Z,101849.75
2023-01-02T18:58:01.627Z,101850.84
2023-01-02T19:00:33.503Z,101858.16
2023-01-02T19:03:19.288Z,101851.03
2023-01-02T19:05:46.126Z,101861.81
2023-01-02T19:08:22.098Z,101862.69
2023-01-02T19:10:55.755Z,101868.06
2023-01-02T19:13:32.203Z,101876.19
2023-01-02T19:16:19.403Z,101881.69
2023-01-02T19:18:50.100Z,101883.56
2023-01-02T19:21:31.351Z,101895.22
2023-01-02T19:24:22.697Z,101893.34
2023-01-02T19:26:55.511Z,101906.00
2023-01-02T19:29:30.361Z,101915.00
2023-01-02T19:32:29.202Z,101912.47
2023-01-02T19:35:04.141Z,101917.38
2023-01-02T19:37:39.076Z,101921.25
2023-01-02T19:40:20.815Z,101921.25
2023-01-02T19:42:53.447Z,101925.75
2023-01-02T19:45:24.485Z,101927.63
2023-01-02T19:47:53.081Z,101928.75
2023-01-02T19:50:27.029Z,101945.13
2023-01-02T19:52:54.462Z,101942.63
2023-01-02T19:55:21.419Z,101947.25
2023-01-02T19:57:48.685Z,101945.63
2023-01-02T20:00:19.317Z,101949.50
2023-01-02T20:02:49.640Z,101955.97
2023-01-02T20:05:21.482Z,101961.56
2023-01-02T20:07:53.227Z,101960.00
2023-01-02T20:10:22.480Z,101965.63
2023-01-02T20:12:50.191Z,101963.03
2023-01-02T20:15:23.779Z,101965.00
2023-01-02T20:17:52.958Z,101968.75
2023-01-02T20:20:25.163Z,101969.81
2023-01-02T20:22:52.531Z,101976.22
2023-01-02T20:25:25.270Z,101969.19
2023-01-02T20:27:54.830Z,101970.34
2023-01-02T20:30:25.001Z,101975.03
2023-01-02T20:32:54.409Z,101978.72
2023-01-02T20:35:22.161Z,101978.09
2023-01-02T20:37:49.172Z,101985.38
2023-01-02T20:40:16.722Z,101978.41
2023-01-02T20:42:43.725Z,101985.75
2023-01-02T20:45:12.128Z,101996.63
2023-01-02T20:47:38.985Z,101997.66
2023-01-02T20:50:06.460Z,102004.81
2023-01-02T20:52:33.346Z,102015.63
2023-01-02T20:55:00.409Z,102017.41
2023-01-02T20:57:27.471Z,102022.88
2023-01-02T20:59:54.365Z,102024.72
2023-01-02T21:02:21.357Z,102026.59
2023-01-02T21:04:48.255Z,102020.41
2023-01-02T21:07:15.057Z,102031.22
2023-01-02T21:09:41.812Z,102041.13
2023-01-02T21:12:28.599Z,102041.19
2023-01-02T21:14:55.558Z,102049.06
2023-01-02T21:17:22.416Z,102049.78
2023-01-02T21:19:49.166Z,102062.94
2023-01-02T21:22:16.001Z,102049.41
2023-01-02T21:24:43.463Z,102062.81
2023-01-02T21:27:13.229Z,102059.13
2023-01-02T21:29:40.615Z,102065.28
2023-01-02T21:32:07.470Z,102071.38
2023-01-02T21:34:34.381Z,102072.22
2023-01-02T21:37:01.224Z,102071.25
2023-01-02T21:39:28.063Z,102066.69
2023-01-02T21:42:13.248Z,102066.66
2023-01-02T21:44:40.031Z,102065.75
2023-01-02T21:47:07.214Z,102071.06
2023-01-02T21:49:34.163Z,102062.94
2023-01-02T21:52:01.814Z,102063.84
2023-01-02T21:54:28.794Z,102066.53
2023-01-02T21:56:55.825Z,102070.16
2023-01-02T21:59:25.441Z,102059.28
2023-01-02T22:01:53.423Z,102066.44
2023-01-02T22:04:21.602Z,102069.06
2023-01-02T22:07:21.270Z,102073.41
2023-01-02T22:09:36.079Z,102075.09
2023-01-02T22:12:03.058Z,102075.09
2023-01-02T22:14:33.901Z,102079.72
2023-01-02T22:17:08.989Z,102086.06
2023-01-02T22:19:36.816Z,102090.66
2023-01-02T22:22:05.160Z,102108.72
2023-01-02T22:24:32.477Z,102104.34
2023-01-02T22:27:04.837Z,102110.56
2023-01-02T22:30:09.520Z,102122.25
2023-01-02T22:32:19.937Z,102135.72
2023-01-02T22:34:47.064Z,102138.47
2023-01-02T22:37:21.998Z,102134.94
2023-01-02T22:39:49.410Z,102149.19
2023-01-02T22:43:03.824Z,102145.66
2023-01-02T22:45:45.199Z,102140.38
2023-01-02T22:48:23.833Z,102140.41
2023-01-02T22:50:53.798Z,102156.56
2023-01-02T22:53:23.966Z,102152.97
2023-01-02T22:55:51.453Z,102152.09
2023-01-02T22:58:19.427Z,102140.44
2023-01-02T23:00:57.631Z,102152.09
2023-01-02T23:03:27.094Z,102161.06
2023-01-02T23:05:53.829Z,102160.19
2023-01-02T23:08:20.667Z,102160.19
2023-01-02T23:10:47.475Z,102154.81
2023-01-02T23:13:14.289Z,102156.72
2023-01-02T23:16:01.083Z,102152.28
2023-01-02T23:18:50.455Z,102158.53
2023-01-02T23:21:26.138Z,102155.00
2023-01-02T23:23:53.672Z,102159.53
2023-01-02T23:26:24.128Z,102166.75
2023-01-02T23:29:08.441Z,102172.97
2023-01-02T23:31:39.656Z,102174.72
2023-01-02T23:34:08.820Z,102176.47
2023-01-02T23:36:36.799Z,102189.84
2023-01-02T23:39:06.639Z,102181.75
2023-01-02T23:41:35.605Z,102178.16
2023-01-02T23:44:02.513Z,102184.34
2023-01-02T23:46:29.516Z,102186.22
2023-01-02T23:48:56.419Z,102194.25
2023-01-02T23:51:23.213Z,102195.09
2023-01-02T23:53:50.028Z,102185.19
2023-01-02T23:56:21.948Z,102189.59
2023-01-02T23:58:51.729Z,102188.69
